Tuscumbia, Alabama
Current Conditions -  °F | °C
As of 10:53 AM on Saturday 25 Oct 2014 (Local Time) from KMSL Reporting Station
Broken Clouds Broken Clouds  
Wind Chill: 69°   Ceiling: 4000
Heat Index: 69°   Visibility: 10mi
Dew Point: 54°   Wind: 5mph
Humidity: 58%   Direction: 260°W
Pressure: 30.13"   Gusts: NA
Location:  34.73°N, 87.7°W
Report Text: KMSL 251553Z AUTO 26004KT 10SM BKN040 21/12 A3013 RMK AO2 SLP200 T02060122 $
Loading
Personal Weather Stations






























Interactive Weather Map
Tropical Storm Tracking
New forecast layout! Learn more

10-Day Weather Forecast

Advertisements
Track Severe Weather on mobile